sensor_id;sensor_type;location;lat;lon;timestamp;temperature;humidity
35395;DHT22;21500;45.308;9.488;2023-05-20T00:00:47;15.60;99.90
35395;DHT22;21500;45.308;9.488;2023-05-20T00:03:14;15.60;99.90
35395;DHT22;21500;45.308;9.488;2023-05-20T00:05:39;15.60;99.90
35395;DHT22;21500;45.308;9.488;2023-05-20T00:08:05;15.60;99.90
35395;DHT22;21500;45.308;9.488;2023-05-20T00:10:34;15.60;99.90
35395;DHT22;21500;45.308;9.488;2023-05-20T00:12:59;15.60;99.90
35395;DHT22;21500;45.308;9.488;2023-05-20T00:15:25;15.60;99.90
35395;DHT22;21500;45.308;9.488;2023-05-20T00:17:51;15.60;99.90
35395;DHT22;21500;45.308;9.488;2023-05-20T00:20:17;15.60;99.90
35395;DHT22;21500;45.308;9.488;2023-05-20T00:22:42;15.60;99.90
35395;DHT22;21500;45.308;9.488;2023-05-20T00:25:08;15.60;99.90
35395;DHT22;21500;45.308;9.488;2023-05-20T00:27:34;15.60;99.90
35395;DHT22;21500;45.308;9.488;2023-05-20T00:29:59;15.70;99.90
35395;DHT22;21500;45.308;9.488;2023-05-20T00:32:25;15.60;99.90
35395;DHT22;21500;45.308;9.488;2023-05-20T00:34:54;15.60;99.90
35395;DHT22;21500;45.308;9.488;2023-05-20T00:37:20;15.60;99.90
35395;DHT22;21500;45.308;9.488;2023-05-20T00:39:46;15.60;99.90
35395;DHT22;21500;45.308;9.488;2023-05-20T00:42:18;15.60;99.90
35395;DHT22;21500;45.308;9.488;2023-05-20T00:44:43;15.60;99.90
35395;DHT22;21500;45.308;9.488;2023-05-20T00:47:09;15.70;99.90
35395;DHT22;21500;45.308;9.488;2023-05-20T00:49:35;15.60;99.90
35395;DHT22;21500;45.308;9.488;2023-05-20T00:52:00;15.60;99.90
35395;DHT22;21500;45.308;9.488;2023-05-20T00:54:26;15.60;99.90
35395;DHT22;21500;45.308;9.488;2023-05-20T00:56:52;15.60;99.90
35395;DHT22;21500;45.308;9.488;2023-05-20T00:59:17;15.60;99.90
35395;DHT22;21500;45.308;9.488;2023-05-20T01:01:43;15.60;99.90
35395;DHT22;21500;45.308;9.488;2023-05-20T01:04:09;15.60;99.90
35395;DHT22;21500;45.308;9.488;2023-05-20T01:06:35;15.60;99.90
35395;DHT22;21500;45.308;9.488;2023-05-20T01:09:02;15.50;99.90
35395;DHT22;21500;45.308;9.488;2023-05-20T01:11:30;15.60;99.90
35395;DHT22;21500;45.308;9.488;2023-05-20T01:14:00;15.60;99.90
35395;DHT22;21500;45.308;9.488;2023-05-20T01:16:26;15.60;99.90
35395;DHT22;21500;45.308;9.488;2023-05-20T01:18:54;15.60;99.90
35395;DHT22;21500;45.308;9.488;2023-05-20T01:21:20;15.60;99.90
35395;DHT22;21500;45.308;9.488;2023-05-20T01:23:47;15.60;99.90
35395;DHT22;21500;45.308;9.488;2023-05-20T01:26:12;15.60;99.90
35395;DHT22;21500;45.308;9.488;2023-05-20T01:28:39;15.70;99.90
35395;DHT22;21500;45.308;9.488;2023-05-20T01:31:07;15.60;99.90
35395;DHT22;21500;45.308;9.488;2023-05-20T01:33:38;15.60;99.90
35395;DHT22;21500;45.308;9.488;2023-05-20T01:36:06;15.60;99.90
35395;DHT22;21500;45.308;9.488;2023-05-20T01:38:31;15.60;99.90
35395;DHT22;21500;45.308;9.488;2023-05-20T01:40:58;15.60;99.90
35395;DHT22;21500;45.308;9.488;2023-05-20T01:43:24;15.60;99.90
35395;DHT22;21500;45.308;9.488;2023-05-20T01:45:50;15.50;99.90
35395;DHT22;21500;45.308;9.488;2023-05-20T01:48:15;15.50;99.90
35395;DHT22;21500;45.308;9.488;2023-05-20T01:50:42;15.60;99.90
35395;DHT22;21500;45.308;9.488;2023-05-20T01:53:09;15.50;99.90
35395;DHT22;21500;45.308;9.488;2023-05-20T01:55:35;15.50;99.90
35395;DHT22;21500;45.308;9.488;2023-05-20T01:58:01;15.50;99.90
35395;DHT22;21500;45.308;9.488;2023-05-20T02:00:28;15.50;99.90
35395;DHT22;21500;45.308;9.488;2023-05-20T02:02:54;15.50;99.90
35395;DHT22;21500;45.308;9.488;2023-05-20T02:05:20;15.60;99.90
35395;DHT22;21500;45.308;9.488;2023-05-20T02:07:46;15.60;99.90
35395;DHT22;21500;45.308;9.488;2023-05-20T02:10:12;15.50;99.90
35395;DHT22;21500;45.308;9.488;2023-05-20T02:12:37;15.50;99.90
35395;DHT22;21500;45.308;9.488;2023-05-20T02:15:03;15.50;99.90
35395;DHT22;21500;45.308;9.488;2023-05-20T02:17:29;15.50;99.90
35395;DHT22;21500;45.308;9.488;2023-05-20T02:19:56;15.50;99.90
35395;DHT22;21500;45.308;9.488;2023-05-20T02:22:22;15.60;99.90
35395;DHT22;21500;45.308;9.488;2023-05-20T02:24:47;15.60;99.90
35395;DHT22;21500;45.308;9.488;2023-05-20T02:27:14;15.50;99.90
35395;DHT22;21500;45.308;9.488;2023-05-20T02:29:41;15.50;99.90
35395;DHT22;21500;45.308;9.488;2023-05-20T02:32:07;15.50;99.90
35395;DHT22;21500;45.308;9.488;2023-05-20T02:34:33;15.50;99.90
35395;DHT22;21500;45.308;9.488;2023-05-20T02:36:59;15.50;99.90
35395;DHT22;21500;45.308;9.488;2023-05-20T02:39:24;15.50;99.90
35395;DHT22;21500;45.308;9.488;2023-05-20T02:41:50;15.50;99.90
35395;DHT22;21500;45.308;9.488;2023-05-20T02:44:16;15.50;99.90
35395;DHT22;21500;45.308;9.488;2023-05-20T02:46:42;15.60;99.90
35395;DHT22;21500;45.308;9.488;2023-05-20T02:49:08;15.60;99.90
35395;DHT22;21500;45.308;9.488;2023-05-20T02:51:33;15.60;99.90
35395;DHT22;21500;45.308;9.488;2023-05-20T02:53:59;15.60;99.90
35395;DHT22;21500;45.308;9.488;2023-05-20T02:56:25;15.50;99.90
35395;DHT22;21500;45.308;9.488;2023-05-20T02:58:51;15.50;99.90
35395;DHT22;21500;45.308;9.488;2023-05-20T03:01:17;15.50;99.90
35395;DHT22;21500;45.308;9.488;2023-05-20T03:03:42;15.50;99.90
35395;DHT22;21500;45.308;9.488;2023-05-20T03:06:08;15.50;99.90
35395;DHT22;21500;45.308;9.488;2023-05-20T03:08:34;15.50;99.90
35395;DHT22;21500;45.308;9.488;2023-05-20T03:11:01;15.50;99.90
35395;DHT22;21500;45.308;9.488;2023-05-20T03:13:26;15.50;99.90
35395;DHT22;21500;45.308;9.488;2023-05-20T03:15:52;15.50;99.90
35395;DHT22;21500;45.308;9.488;2023-05-20T03:18:18;15.50;99.90
35395;DHT22;21500;45.308;9.488;2023-05-20T03:20:44;15.50;99.90
35395;DHT22;21500;45.308;9.488;2023-05-20T03:23:10;15.50;99.90
35395;DHT22;21500;45.308;9.488;2023-05-20T03:25:37;15.50;99.90
35395;DHT22;21500;45.308;9.488;2023-05-20T03:28:03;15.50;99.90
35395;DHT22;21500;45.308;9.488;2023-05-20T03:30:30;15.50;99.90
35395;DHT22;21500;45.308;9.488;2023-05-20T03:32:56;15.40;99.90
35395;DHT22;21500;45.308;9.488;2023-05-20T03:35:23;15.40;99.90
35395;DHT22;21500;45.308;9.488;2023-05-20T03:37:48;15.40;99.90
35395;DHT22;21500;45.308;9.488;2023-05-20T03:40:17;15.50;99.90
35395;DHT22;21500;45.308;9.488;2023-05-20T03:42:44;15.50;99.90
35395;DHT22;21500;45.308;9.488;2023-05-20T03:45:11;15.50;99.90
35395;DHT22;21500;45.308;9.488;2023-05-20T03:47:45;15.50;99.90
35395;DHT22;21500;45.308;9.488;2023-05-20T03:50:11;15.50;99.90
35395;DHT22;21500;45.308;9.488;2023-05-20T03:52:37;15.50;99.90
35395;DHT22;21500;45.308;9.488;2023-05-20T03:55:04;15.50;99.90
35395;DHT22;21500;45.308;9.488;2023-05-20T03:57:30;15.50;99.90
35395;DHT22;21500;45.308;9.488;2023-05-20T03:59:56;15.50;99.90
35395;DHT22;21500;45.308;9.488;2023-05-20T04:02:22;15.40;99.90
35395;DHT22;21500;45.308;9.488;2023-05-20T04:04:48;15.50;99.90
35395;DHT22;21500;45.308;9.488;2023-05-20T04:07:18;15.50;99.90
35395;DHT22;21500;45.308;9.488;2023-05-20T04:09:44;15.50;99.90
35395;DHT22;21500;45.308;9.488;2023-05-20T04:12:10;15.40;99.90
35395;DHT22;21500;45.308;9.488;2023-05-20T04:14:36;15.50;99.90
35395;DHT22;21500;45.308;9.488;2023-05-20T04:17:03;15.50;99.90
35395;DHT22;21500;45.308;9.488;2023-05-20T04:19:31;15.50;99.90
35395;DHT22;21500;45.308;9.488;2023-05-20T04:21:56;15.50;99.90
35395;DHT22;21500;45.308;9.488;2023-05-20T04:24:22;15.50;99.90
35395;DHT22;21500;45.308;9.488;2023-05-20T04:26:50;15.50;99.90
35395;DHT22;21500;45.308;9.488;2023-05-20T04:29:16;15.50;99.90
35395;DHT22;21500;45.308;9.488;2023-05-20T04:31:44;15.50;99.90
35395;DHT22;21500;45.308;9.488;2023-05-20T04:34:11;15.50;99.90
35395;DHT22;21500;45.308;9.488;2023-05-20T04:36:36;15.50;99.90
35395;DHT22;21500;45.308;9.488;2023-05-20T04:39:03;15.50;99.90
35395;DHT22;21500;45.308;9.488;2023-05-20T04:41:29;15.50;99.90
35395;DHT22;21500;45.308;9.488;2023-05-20T04:43:55;15.50;99.90
35395;DHT22;21500;45.308;9.488;2023-05-20T04:46:25;15.50;99.90
35395;DHT22;21500;45.308;9.488;2023-05-20T04:48:51;15.50;99.90
35395;DHT22;21500;45.308;9.488;2023-05-20T04:51:17;15.50;99.90
35395;DHT22;21500;45.308;9.488;2023-05-20T04:53:42;15.60;99.90
35395;DHT22;21500;45.308;9.488;2023-05-20T04:56:10;15.60;99.90
35395;DHT22;21500;45.308;9.488;2023-05-20T04:58:35;15.60;99.90
35395;DHT22;21500;45.308;9.488;2023-05-20T05:01:01;15.60;99.90
35395;DHT22;21500;45.308;9.488;2023-05-20T05:03:28;15.60;99.90
35395;DHT22;21500;45.308;9.488;2023-05-20T05:05:56;15.60;99.90
35395;DHT22;21500;45.308;9.488;2023-05-20T05:08:22;15.60;99.90
35395;DHT22;21500;45.308;9.488;2023-05-20T05:10:50;15.60;99.90
35395;DHT22;21500;45.308;9.488;2023-05-20T05:13:16;15.60;99.90
35395;DHT22;21500;45.308;9.488;2023-05-20T05:15:41;15.60;99.90
35395;DHT22;21500;45.308;9.488;2023-05-20T05:18:07;15.60;99.90
35395;DHT22;21500;45.308;9.488;2023-05-20T05:20:35;15.60;99.90
35395;DHT22;21500;45.308;9.488;2023-05-20T05:23:01;15.70;99.90
35395;DHT22;21500;45.308;9.488;2023-05-20T05:25:28;15.60;99.90
35395;DHT22;21500;45.308;9.488;2023-05-20T05:27:59;15.60;99.90
35395;DHT22;21500;45.308;9.488;2023-05-20T05:30:25;15.60;99.90
35395;DHT22;21500;45.308;9.488;2023-05-20T05:32:51;15.70;99.90
35395;DHT22;21500;45.308;9.488;2023-05-20T05:35:17;15.60;99.90
35395;DHT22;21500;45.308;9.488;2023-05-20T05:37:42;15.60;99.90
35395;DHT22;21500;45.308;9.488;2023-05-20T05:40:08;15.70;99.90
35395;DHT22;21500;45.308;9.488;2023-05-20T05:42:35;15.70;99.90
35395;DHT22;21500;45.308;9.488;2023-05-20T05:45:01;15.70;99.90
35395;DHT22;21500;45.308;9.488;2023-05-20T05:47:27;15.80;99.90
35395;DHT22;21500;45.308;9.488;2023-05-20T05:49:57;15.80;99.90
35395;DHT22;21500;45.308;9.488;2023-05-20T05:52:25;15.90;99.90
35395;DHT22;21500;45.308;9.488;2023-05-20T05:54:51;15.80;99.90
35395;DHT22;21500;45.308;9.488;2023-05-20T05:57:17;15.90;99.90
35395;DHT22;21500;45.308;9.488;2023-05-20T05:59:43;15.80;99.90
35395;DHT22;21500;45.308;9.488;2023-05-20T06:02:10;15.90;99.90
35395;DHT22;21500;45.308;9.488;2023-05-20T06:04:35;15.80;99.90
35395;DHT22;21500;45.308;9.488;2023-05-20T06:07:01;15.90;99.90
35395;DHT22;21500;45.308;9.488;2023-05-20T06:09:27;15.90;99.90
35395;DHT22;21500;45.308;9.488;2023-05-20T06:11:53;15.90;99.90
35395;DHT22;21500;45.308;9.488;2023-05-20T06:14:19;15.90;99.90
35395;DHT22;21500;45.308;9.488;2023-05-20T06:16:45;15.90;99.90
35395;DHT22;21500;45.308;9.488;2023-05-20T06:19:11;15.90;99.90
35395;DHT22;21500;45.308;9.488;2023-05-20T06:21:43;15.90;99.90
35395;DHT22;21500;45.308;9.488;2023-05-20T06:24:50;15.90;99.90
35395;DHT22;21500;45.308;9.488;2023-05-20T06:27:44;15.90;99.90
35395;DHT22;21500;45.308;9.488;2023-05-20T06:30:13;15.90;99.90
35395;DHT22;21500;45.308;9.488;2023-05-20T06:32:41;15.90;99.90
35395;DHT22;21500;45.308;9.488;2023-05-20T06:35:07;15.90;99.90
35395;DHT22;21500;45.308;9.488;2023-05-20T06:37:33;15.90;99.90
35395;DHT22;21500;45.308;9.488;2023-05-20T06:39:58;15.90;99.90
35395;DHT22;21500;45.308;9.488;2023-05-20T06:42:24;15.90;99.90
35395;DHT22;21500;45.308;9.488;2023-05-20T06:45:02;15.90;99.90
35395;DHT22;21500;45.308;9.488;2023-05-20T06:47:53;15.90;99.90
35395;DHT22;21500;45.308;9.488;2023-05-20T06:50:19;15.90;99.90
35395;DHT22;21500;45.308;9.488;2023-05-20T06:52:45;15.90;99.90
35395;DHT22;21500;45.308;9.488;2023-05-20T06:55:11;16.00;99.90
35395;DHT22;21500;45.308;9.488;2023-05-20T06:57:38;15.90;99.90
35395;DHT22;21500;45.308;9.488;2023-05-20T07:00:04;15.90;99.90
35395;DHT22;21500;45.308;9.488;2023-05-20T07:02:32;15.90;99.90
35395;DHT22;21500;45.308;9.488;2023-05-20T07:04:58;16.00;99.90
35395;DHT22;21500;45.308;9.488;2023-05-20T07:07:24;16.00;99.90
35395;DHT22;21500;45.308;9.488;2023-05-20T07:09:51;16.00;99.90
35395;DHT22;21500;45.308;9.488;2023-05-20T07:12:17;15.90;99.90
35395;DHT22;21500;45.308;9.488;2023-05-20T07:14:43;15.90;99.90
35395;DHT22;21500;45.308;9.488;2023-05-20T07:17:09;16.00;99.90
35395;DHT22;21500;45.308;9.488;2023-05-20T07:19:37;16.00;99.90
35395;DHT22;21500;45.308;9.488;2023-05-20T07:22:32;16.00;99.90
35395;DHT22;21500;45.308;9.488;2023-05-20T07:25:29;16.00;99.90
35395;DHT22;21500;45.308;9.488;2023-05-20T07:27:55;15.90;99.90
35395;DHT22;21500;45.308;9.488;2023-05-20T07:30:20;16.00;99.90
35395;DHT22;21500;45.308;9.488;2023-05-20T07:32:58;16.00;99.90
35395;DHT22;21500;45.308;9.488;2023-05-20T07:35:23;16.00;99.90
35395;DHT22;21500;45.308;9.488;2023-05-20T07:37:49;16.00;99.90
35395;DHT22;21500;45.308;9.488;2023-05-20T07:40:15;16.00;99.90
35395;DHT22;21500;45.308;9.488;2023-05-20T07:42:41;16.00;99.90
35395;DHT22;21500;45.308;9.488;2023-05-20T07:45:08;16.00;99.90
35395;DHT22;21500;45.308;9.488;2023-05-20T07:47:34;16.00;99.90
35395;DHT22;21500;45.308;9.488;2023-05-20T07:50:00;16.10;99.90
35395;DHT22;21500;45.308;9.488;2023-05-20T07:52:27;16.10;99.90
35395;DHT22;21500;45.308;9.488;2023-05-20T07:54:54;16.20;99.90
35395;DHT22;21500;45.308;9.488;2023-05-20T07:57:21;16.20;99.90
35395;DHT22;21500;45.308;9.488;2023-05-20T07:59:46;16.10;99.90
35395;DHT22;21500;45.308;9.488;2023-05-20T08:02:13;16.20;99.90
35395;DHT22;21500;45.308;9.488;2023-05-20T08:04:42;16.20;99.90
35395;DHT22;21500;45.308;9.488;2023-05-20T08:07:07;16.10;99.90
35395;DHT22;21500;45.308;9.488;2023-05-20T08:09:41;16.20;99.90
35395;DHT22;21500;45.308;9.488;2023-05-20T08:12:07;16.30;99.90
35395;DHT22;21500;45.308;9.488;2023-05-20T08:14:33;16.30;99.90
35395;DHT22;21500;45.308;9.488;2023-05-20T08:16:59;16.30;99.90
35395;DHT22;21500;45.308;9.488;2023-05-20T08:19:25;16.40;99.90
35395;DHT22;21500;45.308;9.488;2023-05-20T08:21:53;16.30;99.90
35395;DHT22;21500;45.308;9.488;2023-05-20T08:24:18;16.30;99.90
35395;DHT22;21500;45.308;9.488;2023-05-20T08:26:44;16.40;99.90
35395;DHT22;21500;45.308;9.488;2023-05-20T08:29:10;16.50;99.90
35395;DHT22;21500;45.308;9.488;2023-05-20T08:31:36;16.40;99.90
35395;DHT22;21500;45.308;9.488;2023-05-20T08:34:02;16.30;99.90
35395;DHT22;21500;45.308;9.488;2023-05-20T08:36:27;16.30;99.90
35395;DHT22;21500;45.308;9.488;2023-05-20T08:38:53;16.30;99.90
35395;DHT22;21500;45.308;9.488;2023-05-20T08:41:20;16.30;99.90
35395;DHT22;21500;45.308;9.488;2023-05-20T08:43:47;16.30;99.90
35395;DHT22;21500;45.308;9.488;2023-05-20T08:46:14;16.30;99.90
35395;DHT22;21500;45.308;9.488;2023-05-20T08:48:40;16.40;99.90
35395;DHT22;21500;45.308;9.488;2023-05-20T08:51:06;16.30;99.90
35395;DHT22;21500;45.308;9.488;2023-05-20T08:53:33;16.30;99.90
35395;DHT22;21500;45.308;9.488;2023-05-20T08:55:59;16.40;99.90
35395;DHT22;21500;45.308;9.488;2023-05-20T08:58:30;16.50;99.90
35395;DHT22;21500;45.308;9.488;2023-05-20T09:00:57;16.50;99.90
35395;DHT22;21500;45.308;9.488;2023-05-20T09:03:23;16.60;99.90
35395;DHT22;21500;45.308;9.488;2023-05-20T09:05:50;16.60;99.90
35395;DHT22;21500;45.308;9.488;2023-05-20T09:08:15;16.70;99.90
35395;DHT22;21500;45.308;9.488;2023-05-20T09:10:41;16.80;99.90
35395;DHT22;21500;45.308;9.488;2023-05-20T09:13:08;16.90;99.90
35395;DHT22;21500;45.308;9.488;2023-05-20T09:15:34;16.90;99.90
35395;DHT22;21500;45.308;9.488;2023-05-20T09:18:03;16.90;99.90
35395;DHT22;21500;45.308;9.488;2023-05-20T09:20:29;16.90;99.90
35395;DHT22;21500;45.308;9.488;2023-05-20T09:22:59;16.90;99.90
35395;DHT22;21500;45.308;9.488;2023-05-20T09:25:25;16.90;99.90
35395;DHT22;21500;45.308;9.488;2023-05-20T09:27:51;17.00;99.90
35395;DHT22;21500;45.308;9.488;2023-05-20T09:30:20;17.10;99.90
35395;DHT22;21500;45.308;9.488;2023-05-20T09:32:53;17.20;99.90
35395;DHT22;21500;45.308;9.488;2023-05-20T09:35:20;17.10;99.90
35395;DHT22;21500;45.308;9.488;2023-05-20T09:37:46;17.10;99.90
35395;DHT22;21500;45.308;9.488;2023-05-20T09:40:13;17.10;99.90
35395;DHT22;21500;45.308;9.488;2023-05-20T09:42:59;17.10;99.90
35395;DHT22;21500;45.308;9.488;2023-05-20T09:45:26;17.10;99.90
35395;DHT22;21500;45.308;9.488;2023-05-20T09:47:52;17.10;99.90
35395;DHT22;21500;45.308;9.488;2023-05-20T09:50:23;17.10;99.90
35395;DHT22;21500;45.308;9.488;2023-05-20T09:52:50;17.00;99.90
35395;DHT22;21500;45.308;9.488;2023-05-20T09:55:17;17.00;99.90
35395;DHT22;21500;45.308;9.488;2023-05-20T09:58:02;16.90;99.90
35395;DHT22;21500;45.308;9.488;2023-05-20T10:00:27;17.00;99.90
35395;DHT22;21500;45.308;9.488;2023-05-20T10:02:54;17.10;99.90
35395;DHT22;21500;45.308;9.488;2023-05-20T10:05:21;17.20;99.90
35395;DHT22;21500;45.308;9.488;2023-05-20T10:10:45;17.00;99.90
35395;DHT22;21500;45.308;9.488;2023-05-20T10:16:17;17.10;99.90
35395;DHT22;21500;45.308;9.488;2023-05-20T10:18:45;17.10;99.90
35395;DHT22;21500;45.308;9.488;2023-05-20T10:21:14;17.30;99.90
35395;DHT22;21500;45.308;9.488;2023-05-20T10:23:40;17.30;99.90
35395;DHT22;21500;45.308;9.488;2023-05-20T10:26:06;17.40;99.90
35395;DHT22;21500;45.308;9.488;2023-05-20T10:28:32;17.40;99.90
35395;DHT22;21500;45.308;9.488;2023-05-20T10:31:00;17.40;99.90
35395;DHT22;21500;45.308;9.488;2023-05-20T10:33:26;17.50;99.90
35395;DHT22;21500;45.308;9.488;2023-05-20T10:35:53;17.50;99.90
35395;DHT22;21500;45.308;9.488;2023-05-20T10:38:19;17.60;99.90
35395;DHT22;21500;45.308;9.488;2023-05-20T10:40:45;17.50;99.90
35395;DHT22;21500;45.308;9.488;2023-05-20T10:43:12;17.60;99.90
35395;DHT22;21500;45.308;9.488;2023-05-20T10:46:03;17.80;99.90
35395;DHT22;21500;45.308;9.488;2023-05-20T10:48:34;17.90;99.90
35395;DHT22;21500;45.308;9.488;2023-05-20T10:56:24;18.10;99.90
35395;DHT22;21500;45.308;9.488;2023-05-20T10:58:52;18.10;99.90
35395;DHT22;21500;45.308;9.488;2023-05-20T11:01:22;18.10;99.90
35395;DHT22;21500;45.308;9.488;2023-05-20T11:03:48;18.10;99.90
35395;DHT22;21500;45.308;9.488;2023-05-20T11:06:15;17.90;99.90
35395;DHT22;21500;45.308;9.488;2023-05-20T11:08:41;17.80;99.90
35395;DHT22;21500;45.308;9.488;2023-05-20T11:11:07;17.60;99.90
35395;DHT22;21500;45.308;9.488;2023-05-20T11:13:33;17.60;99.90
35395;DHT22;21500;45.308;9.488;2023-05-20T11:15:59;17.40;99.90
35395;DHT22;21500;45.308;9.488;2023-05-20T11:18:26;17.30;99.90
35395;DHT22;21500;45.308;9.488;2023-05-20T11:20:58;17.30;99.90
35395;DHT22;21500;45.308;9.488;2023-05-20T11:23:24;17.30;99.90
35395;DHT22;21500;45.308;9.488;2023-05-20T11:25:51;17.30;99.90
35395;DHT22;21500;45.308;9.488;2023-05-20T11:28:18;17.30;99.90
35395;DHT22;21500;45.308;9.488;2023-05-20T11:30:48;17.10;99.90
35395;DHT22;21500;45.308;9.488;2023-05-20T11:33:16;17.00;99.90
35395;DHT22;21500;45.308;9.488;2023-05-20T11:35:49;17.10;99.90
35395;DHT22;21500;45.308;9.488;2023-05-20T11:38:17;17.10;99.90
35395;DHT22;21500;45.308;9.488;2023-05-20T11:40:43;17.10;99.90
35395;DHT22;21500;45.308;9.488;2023-05-20T11:43:13;17.10;99.90
35395;DHT22;21500;45.308;9.488;2023-05-20T11:45:39;17.00;99.90
35395;DHT22;21500;45.308;9.488;2023-05-20T11:48:05;17.00;99.90
35395;DHT22;21500;45.308;9.488;2023-05-20T11:50:35;17.00;99.90
35395;DHT22;21500;45.308;9.488;2023-05-20T11:53:04;17.00;99.90
35395;DHT22;21500;45.308;9.488;2023-05-20T11:55:30;17.00;99.90
35395;DHT22;21500;45.308;9.488;2023-05-20T11:57:57;17.10;99.90
35395;DHT22;21500;45.308;9.488;2023-05-20T12:00:23;17.00;99.90
35395;DHT22;21500;45.308;9.488;2023-05-20T12:02:48;17.00;99.90
35395;DHT22;21500;45.308;9.488;2023-05-20T12:05:15;17.10;99.90
35395;DHT22;21500;45.308;9.488;2023-05-20T12:07:41;17.10;99.90
35395;DHT22;21500;45.308;9.488;2023-05-20T12:10:07;17.20;99.90
35395;DHT22;21500;45.308;9.488;2023-05-20T12:12:34;17.20;99.90
35395;DHT22;21500;45.308;9.488;2023-05-20T12:15:01;17.20;99.90
35395;DHT22;21500;45.308;9.488;2023-05-20T12:17:27;17.30;99.90
35395;DHT22;21500;45.308;9.488;2023-05-20T12:19:53;17.40;99.90
35395;DHT22;21500;45.308;9.488;2023-05-20T12:22:23;17.30;99.90
35395;DHT22;21500;45.308;9.488;2023-05-20T12:25:12;17.30;99.90
35395;DHT22;21500;45.308;9.488;2023-05-20T12:27:55;17.30;99.90
35395;DHT22;21500;45.308;9.488;2023-05-20T12:30:21;17.40;99.90
35395;DHT22;21500;45.308;9.488;2023-05-20T12:32:48;17.40;99.90
35395;DHT22;21500;45.308;9.488;2023-05-20T12:35:15;17.50;99.90
35395;DHT22;21500;45.308;9.488;2023-05-20T12:37:41;17.50;99.90
35395;DHT22;21500;45.308;9.488;2023-05-20T12:40:08;17.50;99.90
35395;DHT22;21500;45.308;9.488;2023-05-20T12:42:37;17.50;99.90
35395;DHT22;21500;45.308;9.488;2023-05-20T12:45:05;17.50;99.90
35395;DHT22;21500;45.308;9.488;2023-05-20T12:47:32;17.50;99.90
35395;DHT22;21500;45.308;9.488;2023-05-20T12:49:58;17.50;99.90
35395;DHT22;21500;45.308;9.488;2023-05-20T12:52:27;17.30;99.90
35395;DHT22;21500;45.308;9.488;2023-05-20T12:54:54;17.30;99.90
35395;DHT22;21500;45.308;9.488;2023-05-20T12:57:21;17.30;99.90
35395;DHT22;21500;45.308;9.488;2023-05-20T12:59:47;17.30;99.90
35395;DHT22;21500;45.308;9.488;2023-05-20T13:02:15;17.40;99.90
35395;DHT22;21500;45.308;9.488;2023-05-20T13:04:42;17.40;99.90
35395;DHT22;21500;45.308;9.488;2023-05-20T13:07:08;17.40;99.90
35395;DHT22;21500;45.308;9.488;2023-05-20T13:09:35;17.30;99.90
35395;DHT22;21500;45.308;9.488;2023-05-20T13:12:00;17.40;99.90
35395;DHT22;21500;45.308;9.488;2023-05-20T13:14:26;17.30;99.90
35395;DHT22;21500;45.308;9.488;2023-05-20T13:16:52;17.30;99.90
35395;DHT22;21500;45.308;9.488;2023-05-20T13:19:19;17.10;99.90
35395;DHT22;21500;45.308;9.488;2023-05-20T13:21:47;17.20;99.90
35395;DHT22;21500;45.308;9.488;2023-05-20T13:24:12;17.10;99.90
35395;DHT22;21500;45.308;9.488;2023-05-20T13:26:38;17.10;99.90
35395;DHT22;21500;45.308;9.488;2023-05-20T13:29:07;17.10;99.90
35395;DHT22;21500;45.308;9.488;2023-05-20T13:31:34;17.00;99.90
35395;DHT22;21500;45.308;9.488;2023-05-20T13:33:59;17.10;99.90
35395;DHT22;21500;45.308;9.488;2023-05-20T13:36:25;17.00;99.90
35395;DHT22;21500;45.308;9.488;2023-05-20T13:38:51;17.00;99.90
35395;DHT22;21500;45.308;9.488;2023-05-20T13:41:17;16.90;99.90
35395;DHT22;21500;45.308;9.488;2023-05-20T13:43:43;17.00;99.90
35395;DHT22;21500;45.308;9.488;2023-05-20T13:46:09;17.00;99.90
35395;DHT22;21500;45.308;9.488;2023-05-20T13:48:38;17.00;99.90
35395;DHT22;21500;45.308;9.488;2023-05-20T13:51:04;16.80;99.90
35395;DHT22;21500;45.308;9.488;2023-05-20T13:53:29;16.80;99.90
35395;DHT22;21500;45.308;9.488;2023-05-20T13:55:55;16.80;99.90
35395;DHT22;21500;45.308;9.488;2023-05-20T13:58:23;16.90;99.90
35395;DHT22;21500;45.308;9.488;2023-05-20T14:00:48;16.90;99.90
35395;DHT22;21500;45.308;9.488;2023-05-20T14:03:14;16.90;99.90
35395;DHT22;21500;45.308;9.488;2023-05-20T14:05:41;16.80;99.90
35395;DHT22;21500;45.308;9.488;2023-05-20T14:08:07;16.80;99.90
35395;DHT22;21500;45.308;9.488;2023-05-20T14:10:33;16.80;99.90
35395;DHT22;21500;45.308;9.488;2023-05-20T14:12:59;16.90;99.90
35395;DHT22;21500;45.308;9.488;2023-05-20T14:15:26;16.90;99.90
35395;DHT22;21500;45.308;9.488;2023-05-20T14:17:57;16.90;99.90
35395;DHT22;21500;45.308;9.488;2023-05-20T14:20:23;16.90;99.90
35395;DHT22;21500;45.308;9.488;2023-05-20T14:22:50;16.90;99.90
35395;DHT22;21500;45.308;9.488;2023-05-20T14:25:16;16.90;99.90
35395;DHT22;21500;45.308;9.488;2023-05-20T14:27:42;17.00;99.90
35395;DHT22;21500;45.308;9.488;2023-05-20T14:30:07;17.00;99.90
35395;DHT22;21500;45.308;9.488;2023-05-20T14:32:33;17.10;99.90
35395;DHT22;21500;45.308;9.488;2023-05-20T14:34:59;17.10;99.90
35395;DHT22;21500;45.308;9.488;2023-05-20T14:37:25;17.20;99.90
35395;DHT22;21500;45.308;9.488;2023-05-20T14:39:54;17.00;99.90
35395;DHT22;21500;45.308;9.488;2023-05-20T14:42:19;17.00;99.90
35395;DHT22;21500;45.308;9.488;2023-05-20T14:44:45;17.10;99.90
35395;DHT22;21500;45.308;9.488;2023-05-20T14:47:11;17.20;99.90
35395;DHT22;21500;45.308;9.488;2023-05-20T14:49:41;17.20;99.90
35395;DHT22;21500;45.308;9.488;2023-05-20T14:52:06;17.10;99.90
35395;DHT22;21500;45.308;9.488;2023-05-20T14:54:32;17.20;99.90
35395;DHT22;21500;45.308;9.488;2023-05-20T14:56:58;17.20;99.90
35395;DHT22;21500;45.308;9.488;2023-05-20T14:59:24;17.20;99.90
35395;DHT22;21500;45.308;9.488;2023-05-20T15:01:50;17.30;99.90
35395;DHT22;21500;45.308;9.488;2023-05-20T15:04:15;17.20;99.90
35395;DHT22;21500;45.308;9.488;2023-05-20T15:06:41;17.20;99.90
35395;DHT22;21500;45.308;9.488;2023-05-20T15:09:07;17.20;99.90
35395;DHT22;21500;45.308;9.488;2023-05-20T15:11:32;17.20;99.90
35395;DHT22;21500;45.308;9.488;2023-05-20T15:36:29;17.00;99.90
35395;DHT22;21500;45.308;9.488;2023-05-20T15:38:57;17.00;99.90
35395;DHT22;21500;45.308;9.488;2023-05-20T15:41:23;17.00;99.90
35395;DHT22;21500;45.308;9.488;2023-05-20T15:43:49;17.00;99.90
35395;DHT22;21500;45.308;9.488;2023-05-20T15:46:15;17.00;99.90
35395;DHT22;21500;45.308;9.488;2023-05-20T15:51:24;17.00;99.90
35395;DHT22;21500;45.308;9.488;2023-05-20T15:53:53;17.00;99.90
35395;DHT22;21500;45.308;9.488;2023-05-20T15:56:51;17.00;99.90
35395;DHT22;21500;45.308;9.488;2023-05-20T15:59:29;17.00;99.90
35395;DHT22;21500;45.308;9.488;2023-05-20T16:01:56;17.10;99.90
35395;DHT22;21500;45.308;9.488;2023-05-20T16:04:30;17.10;99.90
35395;DHT22;21500;45.308;9.488;2023-05-20T16:06:58;17.10;99.90